sensor_id;sensor_type;location;lat;lon;timestamp;P1;durP1;ratioP1;P2;durP2;ratioP2
26656;SDS011;14279;50.010;8.260;2022-08-03T00:01:16;7.20;;;3.80;;
26656;SDS011;14279;50.010;8.260;2022-08-03T00:03:42;8.90;;;3.67;;
26656;SDS011;14279;50.010;8.260;2022-08-03T00:06:07;14.40;;;3.70;;
26656;SDS011;14279;50.010;8.260;2022-08-03T00:08:32;4.03;;;3.20;;
26656;SDS011;14279;50.010;8.260;2022-08-03T00:10:58;9.40;;;3.20;;
26656;SDS011;14279;50.010;8.260;2022-08-03T00:13:23;5.83;;;2.90;;
26656;SDS011;14279;50.010;8.260;2022-08-03T00:15:49;6.60;;;3.10;;
26656;SDS011;14279;50.010;8.260;2022-08-03T00:18:14;5.70;;;3.63;;
26656;SDS011;14279;50.010;8.260;2022-08-03T00:20:43;5.07;;;3.57;;
26656;SDS011;14279;50.010;8.260;2022-08-03T00:23:08;7.13;;;3.50;;
26656;SDS011;14279;50.010;8.260;2022-08-03T00:25:34;4.63;;;3.23;;
26656;SDS011;14279;50.010;8.260;2022-08-03T00:28:00;8.50;;;3.20;;
26656;SDS011;14279;50.010;8.260;2022-08-03T00:30:26;8.77;;;3.30;;
26656;SDS011;14279;50.010;8.260;2022-08-03T00:32:52;6.47;;;3.53;;
26656;SDS011;14279;50.010;8.260;2022-08-03T00:35:17;9.03;;;3.07;;
26656;SDS011;14279;50.010;8.260;2022-08-03T00:37:42;6.00;;;3.23;;
26656;SDS011;14279;50.010;8.260;2022-08-03T00:40:09;4.50;;;3.40;;
26656;SDS011;14279;50.010;8.260;2022-08-03T00:42:45;5.27;;;3.20;;
26656;SDS011;14279;50.010;8.260;2022-08-03T00:45:34;6.00;;;3.80;;
26656;SDS011;14279;50.010;8.260;2022-08-03T00:48:02;6.50;;;3.33;;
26656;SDS011;14279;50.010;8.260;2022-08-03T00:50:30;5.60;;;4.00;;
26656;SDS011;14279;50.010;8.260;2022-08-03T00:52:59;8.53;;;3.37;;
26656;SDS011;14279;50.010;8.260;2022-08-03T00:55:25;7.80;;;2.90;;
26656;SDS011;14279;50.010;8.260;2022-08-03T00:57:52;19.90;;;3.83;;
26656;SDS011;14279;50.010;8.260;2022-08-03T01:00:18;8.87;;;3.33;;
26656;SDS011;14279;50.010;8.260;2022-08-03T01:02:45;5.97;;;3.20;;
26656;SDS011;14279;50.010;8.260;2022-08-03T01:05:11;15.97;;;3.30;;
26656;SDS011;14279;50.010;8.260;2022-08-03T01:13:28;8.00;;;2.77;;
26656;SDS011;14279;50.010;8.260;2022-08-03T01:16:00;6.37;;;2.90;;
26656;SDS011;14279;50.010;8.260;2022-08-03T01:18:31;5.10;;;2.90;;
26656;SDS011;14279;50.010;8.260;2022-08-03T01:21:02;5.60;;;2.40;;
26656;SDS011;14279;50.010;8.260;2022-08-03T01:32:30;6.30;;;3.00;;
26656;SDS011;14279;50.010;8.260;2022-08-03T01:35:02;6.37;;;3.00;;
26656;SDS011;14279;50.010;8.260;2022-08-03T01:37:41;7.40;;;3.10;;
26656;SDS011;14279;50.010;8.260;2022-08-03T01:40:11;7.63;;;3.47;;
26656;SDS011;14279;50.010;8.260;2022-08-03T01:42:40;5.63;;;3.07;;
26656;SDS011;14279;50.010;8.260;2022-08-03T01:45:07;11.17;;;4.10;;
26656;SDS011;14279;50.010;8.260;2022-08-03T01:47:34;4.53;;;2.83;;
26656;SDS011;14279;50.010;8.260;2022-08-03T01:50:00;12.07;;;3.13;;
26656;SDS011;14279;50.010;8.260;2022-08-03T01:52:28;8.10;;;3.27;;
26656;SDS011;14279;50.010;8.260;2022-08-03T01:54:56;15.13;;;7.53;;
26656;SDS011;14279;50.010;8.260;2022-08-03T01:57:22;39.57;;;23.20;;
26656;SDS011;14279;50.010;8.260;2022-08-03T01:59:49;55.47;;;26.73;;
26656;SDS011;14279;50.010;8.260;2022-08-03T02:02:16;36.77;;;19.27;;
26656;SDS011;14279;50.010;8.260;2022-08-03T02:04:44;21.87;;;11.93;;
26656;SDS011;14279;50.010;8.260;2022-08-03T02:07:11;27.80;;;11.07;;
26656;SDS011;14279;50.010;8.260;2022-08-03T02:09:39;17.47;;;9.67;;
26656;SDS011;14279;50.010;8.260;2022-08-03T02:12:08;22.40;;;10.33;;
26656;SDS011;14279;50.010;8.260;2022-08-03T02:14:36;25.50;;;12.37;;
26656;SDS011;14279;50.010;8.260;2022-08-03T02:17:05;23.37;;;11.40;;
26656;SDS011;14279;50.010;8.260;2022-08-03T02:19:32;18.87;;;9.77;;
26656;SDS011;14279;50.010;8.260;2022-08-03T02:21:59;14.20;;;6.87;;
26656;SDS011;14279;50.010;8.260;2022-08-03T02:24:25;19.70;;;10.57;;
26656;SDS011;14279;50.010;8.260;2022-08-03T02:26:51;21.83;;;9.60;;
26656;SDS011;14279;50.010;8.260;2022-08-03T02:29:20;28.17;;;15.40;;
26656;SDS011;14279;50.010;8.260;2022-08-03T02:31:48;33.37;;;17.43;;
26656;SDS011;14279;50.010;8.260;2022-08-03T02:34:15;30.50;;;14.87;;
26656;SDS011;14279;50.010;8.260;2022-08-03T02:36:44;23.77;;;10.37;;
26656;SDS011;14279;50.010;8.260;2022-08-03T02:39:14;20.33;;;7.57;;
26656;SDS011;14279;50.010;8.260;2022-08-03T02:41:46;10.40;;;5.67;;
26656;SDS011;14279;50.010;8.260;2022-08-03T02:44:15;12.10;;;4.70;;
26656;SDS011;14279;50.010;8.260;2022-08-03T02:46:45;11.87;;;5.30;;
26656;SDS011;14279;50.010;8.260;2022-08-03T02:49:13;9.13;;;5.50;;
26656;SDS011;14279;50.010;8.260;2022-08-03T02:51:43;10.50;;;5.73;;
26656;SDS011;14279;50.010;8.260;2022-08-03T02:54:11;7.33;;;3.43;;
26656;SDS011;14279;50.010;8.260;2022-08-03T02:56:39;9.33;;;4.37;;
26656;SDS011;14279;50.010;8.260;2022-08-03T02:59:05;4.97;;;2.90;;
26656;SDS011;14279;50.010;8.260;2022-08-03T03:01:32;5.20;;;2.97;;
26656;SDS011;14279;50.010;8.260;2022-08-03T03:03:57;5.87;;;2.87;;
26656;SDS011;14279;50.010;8.260;2022-08-03T03:06:24;4.60;;;3.20;;
26656;SDS011;14279;50.010;8.260;2022-08-03T03:08:51;10.53;;;3.20;;
26656;SDS011;14279;50.010;8.260;2022-08-03T03:11:17;16.60;;;3.30;;
26656;SDS011;14279;50.010;8.260;2022-08-03T03:13:44;3.70;;;3.23;;
26656;SDS011;14279;50.010;8.260;2022-08-03T03:16:11;7.97;;;3.10;;
26656;SDS011;14279;50.010;8.260;2022-08-03T03:18:38;5.90;;;2.90;;
26656;SDS011;14279;50.010;8.260;2022-08-03T03:21:04;4.83;;;3.07;;
26656;SDS011;14279;50.010;8.260;2022-08-03T03:23:32;6.93;;;2.63;;
26656;SDS011;14279;50.010;8.260;2022-08-03T03:26:00;3.57;;;2.80;;
26656;SDS011;14279;50.010;8.260;2022-08-03T03:28:28;7.53;;;3.00;;
26656;SDS011;14279;50.010;8.260;2022-08-03T03:30:57;5.20;;;2.93;;
26656;SDS011;14279;50.010;8.260;2022-08-03T03:33:23;8.13;;;2.90;;
26656;SDS011;14279;50.010;8.260;2022-08-03T03:35:49;6.60;;;2.80;;
26656;SDS011;14279;50.010;8.260;2022-08-03T03:38:15;5.80;;;2.57;;
26656;SDS011;14279;50.010;8.260;2022-08-03T03:40:40;4.67;;;2.87;;
26656;SDS011;14279;50.010;8.260;2022-08-03T03:43:07;3.50;;;2.80;;
26656;SDS011;14279;50.010;8.260;2022-08-03T03:46:19;13.93;;;3.80;;
26656;SDS011;14279;50.010;8.260;2022-08-03T03:48:48;3.57;;;2.70;;
26656;SDS011;14279;50.010;8.260;2022-08-03T03:51:52;5.40;;;2.70;;
26656;SDS011;14279;50.010;8.260;2022-08-03T03:54:18;5.87;;;3.00;;
26656;SDS011;14279;50.010;8.260;2022-08-03T03:56:44;5.10;;;2.70;;
26656;SDS011;14279;50.010;8.260;2022-08-03T03:59:12;3.57;;;2.77;;
26656;SDS011;14279;50.010;8.260;2022-08-03T04:01:40;14.00;;;3.70;;
26656;SDS011;14279;50.010;8.260;2022-08-03T04:04:06;8.30;;;3.00;;
26656;SDS011;14279;50.010;8.260;2022-08-03T04:06:50;8.43;;;3.10;;
26656;SDS011;14279;50.010;8.260;2022-08-03T04:09:34;10.73;;;2.80;;
26656;SDS011;14279;50.010;8.260;2022-08-03T04:12:25;6.73;;;3.37;;
26656;SDS011;14279;50.010;8.260;2022-08-03T04:14:54;7.83;;;3.13;;
26656;SDS011;14279;50.010;8.260;2022-08-03T04:17:27;5.23;;;3.50;;
26656;SDS011;14279;50.010;8.260;2022-08-03T04:19:54;9.23;;;2.97;;
26656;SDS011;14279;50.010;8.260;2022-08-03T04:22:23;4.70;;;2.93;;
26656;SDS011;14279;50.010;8.260;2022-08-03T04:25:03;13.50;;;3.40;;
26656;SDS011;14279;50.010;8.260;2022-08-03T04:27:37;7.00;;;3.37;;
26656;SDS011;14279;50.010;8.260;2022-08-03T04:30:05;4.67;;;2.93;;
26656;SDS011;14279;50.010;8.260;2022-08-03T04:32:31;5.60;;;2.80;;
26656;SDS011;14279;50.010;8.260;2022-08-03T04:34:57;4.50;;;3.17;;
26656;SDS011;14279;50.010;8.260;2022-08-03T04:39:57;7.23;;;2.70;;
26656;SDS011;14279;50.010;8.260;2022-08-03T04:42:26;5.63;;;3.63;;
26656;SDS011;14279;50.010;8.260;2022-08-03T04:44:54;8.40;;;3.20;;
26656;SDS011;14279;50.010;8.260;2022-08-03T04:47:21;7.30;;;2.90;;
26656;SDS011;14279;50.010;8.260;2022-08-03T04:49:46;6.67;;;3.10;;
26656;SDS011;14279;50.010;8.260;2022-08-03T04:52:12;7.50;;;3.50;;
26656;SDS011;14279;50.010;8.260;2022-08-03T04:54:38;7.50;;;3.47;;
26656;SDS011;14279;50.010;8.260;2022-08-03T04:57:07;4.57;;;2.93;;
26656;SDS011;14279;50.010;8.260;2022-08-03T04:59:32;8.90;;;3.87;;
26656;SDS011;14279;50.010;8.260;2022-08-03T05:05:26;3.63;;;2.50;;
26656;SDS011;14279;50.010;8.260;2022-08-03T05:07:58;9.80;;;3.50;;
26656;SDS011;14279;50.010;8.260;2022-08-03T05:10:23;6.13;;;2.80;;
26656;SDS011;14279;50.010;8.260;2022-08-03T05:12:54;5.53;;;2.90;;
26656;SDS011;14279;50.010;8.260;2022-08-03T05:15:23;4.77;;;2.87;;
26656;SDS011;14279;50.010;8.260;2022-08-03T05:17:48;3.50;;;2.87;;
26656;SDS011;14279;50.010;8.260;2022-08-03T05:20:13;4.50;;;3.03;;
26656;SDS011;14279;50.010;8.260;2022-08-03T05:22:38;6.90;;;2.70;;
26656;SDS011;14279;50.010;8.260;2022-08-03T05:25:04;7.73;;;3.27;;
26656;SDS011;14279;50.010;8.260;2022-08-03T05:27:29;8.30;;;2.83;;
26656;SDS011;14279;50.010;8.260;2022-08-03T05:29:54;8.83;;;3.07;;
26656;SDS011;14279;50.010;8.260;2022-08-03T05:32:25;4.43;;;3.17;;
26656;SDS011;14279;50.010;8.260;2022-08-03T05:34:50;3.03;;;2.60;;
26656;SDS011;14279;50.010;8.260;2022-08-03T05:37:15;5.93;;;3.10;;
26656;SDS011;14279;50.010;8.260;2022-08-03T05:39:40;6.50;;;2.80;;
26656;SDS011;14279;50.010;8.260;2022-08-03T05:42:06;7.90;;;3.40;;
26656;SDS011;14279;50.010;8.260;2022-08-03T05:44:31;6.37;;;3.47;;
26656;SDS011;14279;50.010;8.260;2022-08-03T05:46:56;3.23;;;2.60;;
26656;SDS011;14279;50.010;8.260;2022-08-03T05:49:22;2.97;;;2.60;;
26656;SDS011;14279;50.010;8.260;2022-08-03T05:51:47;4.90;;;2.80;;
26656;SDS011;14279;50.010;8.260;2022-08-03T05:54:13;4.80;;;2.47;;
26656;SDS011;14279;50.010;8.260;2022-08-03T05:56:38;5.87;;;2.40;;
26656;SDS011;14279;50.010;8.260;2022-08-03T05:59:18;3.73;;;2.20;;
26656;SDS011;14279;50.010;8.260;2022-08-03T06:01:44;10.73;;;2.37;;
26656;SDS011;14279;50.010;8.260;2022-08-03T06:04:09;2.77;;;2.47;;
26656;SDS011;14279;50.010;8.260;2022-08-03T06:06:35;4.47;;;2.60;;
26656;SDS011;14279;50.010;8.260;2022-08-03T06:09:00;8.90;;;3.10;;
26656;SDS011;14279;50.010;8.260;2022-08-03T06:11:25;3.13;;;2.87;;
26656;SDS011;14279;50.010;8.260;2022-08-03T06:13:50;4.43;;;2.87;;
26656;SDS011;14279;50.010;8.260;2022-08-03T06:16:16;7.27;;;2.53;;
26656;SDS011;14279;50.010;8.260;2022-08-03T06:18:41;6.43;;;3.00;;
26656;SDS011;14279;50.010;8.260;2022-08-03T06:21:06;14.20;;;3.00;;
26656;SDS011;14279;50.010;8.260;2022-08-03T06:23:31;9.23;;;3.20;;
26656;SDS011;14279;50.010;8.260;2022-08-03T06:25:57;5.77;;;3.03;;
26656;SDS011;14279;50.010;8.260;2022-08-03T06:28:22;12.70;;;3.70;;
26656;SDS011;14279;50.010;8.260;2022-08-03T06:30:55;9.40;;;4.10;;
26656;SDS011;14279;50.010;8.260;2022-08-03T06:33:50;11.43;;;4.23;;
26656;SDS011;14279;50.010;8.260;2022-08-03T06:36:19;16.77;;;4.43;;
26656;SDS011;14279;50.010;8.260;2022-08-03T06:38:47;12.70;;;3.90;;
26656;SDS011;14279;50.010;8.260;2022-08-03T06:41:12;12.90;;;3.97;;
26656;SDS011;14279;50.010;8.260;2022-08-03T06:43:38;16.30;;;4.20;;
26656;SDS011;14279;50.010;8.260;2022-08-03T06:46:03;13.77;;;4.00;;
26656;SDS011;14279;50.010;8.260;2022-08-03T06:48:29;15.73;;;4.97;;
26656;SDS011;14279;50.010;8.260;2022-08-03T06:50:55;12.33;;;4.50;;
26656;SDS011;14279;50.010;8.260;2022-08-03T06:53:20;13.03;;;4.13;;
26656;SDS011;14279;50.010;8.260;2022-08-03T06:56:07;14.63;;;4.70;;
26656;SDS011;14279;50.010;8.260;2022-08-03T06:58:33;8.83;;;3.80;;
26656;SDS011;14279;50.010;8.260;2022-08-03T07:00:59;28.57;;;4.10;;
26656;SDS011;14279;50.010;8.260;2022-08-03T07:03:26;10.10;;;4.13;;
26656;SDS011;14279;50.010;8.260;2022-08-03T07:06:51;16.57;;;4.93;;
26656;SDS011;14279;50.010;8.260;2022-08-03T07:26:27;19.13;;;4.30;;
26656;SDS011;14279;50.010;8.260;2022-08-03T07:35:35;13.20;;;3.80;;
26656;SDS011;14279;50.010;8.260;2022-08-03T07:38:00;8.00;;;3.40;;
26656;SDS011;14279;50.010;8.260;2022-08-03T07:40:25;19.67;;;4.23;;
26656;SDS011;14279;50.010;8.260;2022-08-03T07:42:51;13.17;;;3.77;;
26656;SDS011;14279;50.010;8.260;2022-08-03T07:45:16;12.60;;;3.57;;
26656;SDS011;14279;50.010;8.260;2022-08-03T07:47:41;15.47;;;4.13;;
26656;SDS011;14279;50.010;8.260;2022-08-03T07:50:07;7.43;;;3.53;;
26656;SDS011;14279;50.010;8.260;2022-08-03T07:52:32;18.40;;;4.30;;
26656;SDS011;14279;50.010;8.260;2022-08-03T07:55:17;25.23;;;4.53;;
26656;SDS011;14279;50.010;8.260;2022-08-03T07:57:44;18.37;;;3.77;;
26656;SDS011;14279;50.010;8.260;2022-08-03T08:00:19;9.00;;;2.90;;
26656;SDS011;14279;50.010;8.260;2022-08-03T08:02:47;6.77;;;3.47;;
26656;SDS011;14279;50.010;8.260;2022-08-03T08:05:12;16.50;;;3.50;;
26656;SDS011;14279;50.010;8.260;2022-08-03T08:07:38;20.10;;;3.77;;
26656;SDS011;14279;50.010;8.260;2022-08-03T08:10:04;18.03;;;3.57;;
26656;SDS011;14279;50.010;8.260;2022-08-03T08:15:53;11.83;;;3.10;;
26656;SDS011;14279;50.010;8.260;2022-08-03T08:18:39;10.50;;;3.50;;
26656;SDS011;14279;50.010;8.260;2022-08-03T08:21:07;26.70;;;3.30;;
26656;SDS011;14279;50.010;8.260;2022-08-03T08:23:34;12.80;;;2.70;;
26656;SDS011;14279;50.010;8.260;2022-08-03T08:25:59;10.10;;;3.10;;
26656;SDS011;14279;50.010;8.260;2022-08-03T08:28:24;9.30;;;2.83;;
26656;SDS011;14279;50.010;8.260;2022-08-03T08:30:49;11.53;;;2.70;;
26656;SDS011;14279;50.010;8.260;2022-08-03T08:33:15;14.20;;;2.63;;
26656;SDS011;14279;50.010;8.260;2022-08-03T08:35:40;13.13;;;3.27;;
26656;SDS011;14279;50.010;8.260;2022-08-03T08:38:06;10.10;;;2.63;;
26656;SDS011;14279;50.010;8.260;2022-08-03T08:40:31;8.40;;;3.10;;
26656;SDS011;14279;50.010;8.260;2022-08-03T08:42:56;7.97;;;2.83;;
26656;SDS011;14279;50.010;8.260;2022-08-03T08:45:22;20.67;;;3.57;;
26656;SDS011;14279;50.010;8.260;2022-08-03T08:47:48;17.73;;;2.67;;
26656;SDS011;14279;50.010;8.260;2022-08-03T08:50:19;18.43;;;3.27;;
26656;SDS011;14279;50.010;8.260;2022-08-03T08:52:46;7.70;;;2.73;;
26656;SDS011;14279;50.010;8.260;2022-08-03T08:55:13;11.00;;;2.87;;
26656;SDS011;14279;50.010;8.260;2022-08-03T08:57:45;19.27;;;2.77;;
26656;SDS011;14279;50.010;8.260;2022-08-03T09:00:13;9.73;;;2.90;;
26656;SDS011;14279;50.010;8.260;2022-08-03T09:02:39;10.83;;;2.97;;
26656;SDS011;14279;50.010;8.260;2022-08-03T09:05:08;13.13;;;2.90;;
26656;SDS011;14279;50.010;8.260;2022-08-03T09:07:36;5.97;;;2.70;;
26656;SDS011;14279;50.010;8.260;2022-08-03T09:10:02;21.03;;;3.20;;
26656;SDS011;14279;50.010;8.260;2022-08-03T09:12:28;7.13;;;2.30;;
26656;SDS011;14279;50.010;8.260;2022-08-03T09:14:54;9.50;;;2.80;;
26656;SDS011;14279;50.010;8.260;2022-08-03T09:17:19;9.83;;;3.23;;
26656;SDS011;14279;50.010;8.260;2022-08-03T09:20:02;10.13;;;2.70;;
26656;SDS011;14279;50.010;8.260;2022-08-03T09:22:30;8.63;;;2.03;;
26656;SDS011;14279;50.010;8.260;2022-08-03T09:25:04;12.60;;;3.30;;
26656;SDS011;14279;50.010;8.260;2022-08-03T09:27:42;11.47;;;3.50;;
26656;SDS011;14279;50.010;8.260;2022-08-03T09:30:15;14.47;;;2.90;;
26656;SDS011;14279;50.010;8.260;2022-08-03T09:32:42;8.93;;;3.07;;
26656;SDS011;14279;50.010;8.260;2022-08-03T09:35:10;7.23;;;2.70;;
26656;SDS011;14279;50.010;8.260;2022-08-03T09:37:36;5.87;;;2.50;;
26656;SDS011;14279;50.010;8.260;2022-08-03T09:40:01;11.37;;;2.40;;
26656;SDS011;14279;50.010;8.260;2022-08-03T09:42:28;3.40;;;2.20;;
26656;SDS011;14279;50.010;8.260;2022-08-03T09:44:53;5.90;;;2.20;;
26656;SDS011;14279;50.010;8.260;2022-08-03T09:47:31;10.30;;;2.60;;
26656;SDS011;14279;50.010;8.260;2022-08-03T09:50:04;4.07;;;2.43;;
26656;SDS011;14279;50.010;8.260;2022-08-03T09:52:32;4.70;;;1.90;;
26656;SDS011;14279;50.010;8.260;2022-08-03T09:55:01;4.17;;;2.00;;
26656;SDS011;14279;50.010;8.260;2022-08-03T09:57:31;7.93;;;2.43;;
26656;SDS011;14279;50.010;8.260;2022-08-03T10:00:07;10.00;;;2.47;;
26656;SDS011;14279;50.010;8.260;2022-08-03T10:02:36;7.00;;;2.40;;
26656;SDS011;14279;50.010;8.260;2022-08-03T10:05:02;3.33;;;2.10;;
26656;SDS011;14279;50.010;8.260;2022-08-03T10:07:28;5.47;;;1.80;;
26656;SDS011;14279;50.010;8.260;2022-08-03T10:09:57;4.77;;;1.67;;
26656;SDS011;14279;50.010;8.260;2022-08-03T10:12:25;5.07;;;2.30;;
26656;SDS011;14279;50.010;8.260;2022-08-03T10:14:51;12.27;;;2.30;;
26656;SDS011;14279;50.010;8.260;2022-08-03T10:17:17;7.23;;;1.80;;
26656;SDS011;14279;50.010;8.260;2022-08-03T10:19:43;9.10;;;2.10;;
26656;SDS011;14279;50.010;8.260;2022-08-03T10:22:10;6.63;;;2.13;;
26656;SDS011;14279;50.010;8.260;2022-08-03T10:24:55;4.30;;;1.80;;
26656;SDS011;14279;50.010;8.260;2022-08-03T10:27:24;4.03;;;1.90;;
26656;SDS011;14279;50.010;8.260;2022-08-03T10:29:52;7.03;;;2.10;;
26656;SDS011;14279;50.010;8.260;2022-08-03T10:32:29;9.43;;;1.83;;
26656;SDS011;14279;50.010;8.260;2022-08-03T10:35:11;5.73;;;1.57;;
26656;SDS011;14279;50.010;8.260;2022-08-03T10:37:44;2.53;;;1.70;;
26656;SDS011;14279;50.010;8.260;2022-08-03T10:40:22;4.43;;;1.83;;
26656;SDS011;14279;50.010;8.260;2022-08-03T10:42:50;6.90;;;2.10;;
26656;SDS011;14279;50.010;8.260;2022-08-03T10:45:20;5.90;;;2.03;;
26656;SDS011;14279;50.010;8.260;2022-08-03T10:47:50;3.47;;;1.50;;
26656;SDS011;14279;50.010;8.260;2022-08-03T10:50:16;4.73;;;2.13;;
26656;SDS011;14279;50.010;8.260;2022-08-03T10:53:00;8.33;;;2.07;;
26656;SDS011;14279;50.010;8.260;2022-08-03T10:55:37;7.70;;;1.73;;
26656;SDS011;14279;50.010;8.260;2022-08-03T11:01:08;4.53;;;1.50;;
26656;SDS011;14279;50.010;8.260;2022-08-03T11:06:22;2.03;;;1.30;;
26656;SDS011;14279;50.010;8.260;2022-08-03T11:09:12;1.43;;;1.33;;
26656;SDS011;14279;50.010;8.260;2022-08-03T11:11:41;5.43;;;1.30;;
26656;SDS011;14279;50.010;8.260;2022-08-03T11:14:13;6.23;;;1.77;;
26656;SDS011;14279;50.010;8.260;2022-08-03T11:16:42;4.97;;;1.73;;
26656;SDS011;14279;50.010;8.260;2022-08-03T11:19:11;8.87;;;2.07;;
26656;SDS011;14279;50.010;8.260;2022-08-03T11:27:25;4.23;;;1.50;;
26656;SDS011;14279;50.010;8.260;2022-08-03T11:32:56;3.63;;;1.77;;
26656;SDS011;14279;50.010;8.260;2022-08-03T11:35:29;1.93;;;1.60;;
26656;SDS011;14279;50.010;8.260;2022-08-03T11:40:43;2.73;;;1.70;;
26656;SDS011;14279;50.010;8.260;2022-08-03T11:43:42;2.43;;;1.63;;
26656;SDS011;14279;50.010;8.260;2022-08-03T11:48:43;2.93;;;1.50;;
26656;SDS011;14279;50.010;8.260;2022-08-03T11:53:50;5.27;;;1.33;;
26656;SDS011;14279;50.010;8.260;2022-08-03T11:56:22;3.47;;;1.87;;
26656;SDS011;14279;50.010;8.260;2022-08-03T11:58:49;5.30;;;1.73;;
26656;SDS011;14279;50.010;8.260;2022-08-03T12:01:17;6.13;;;1.70;;
26656;SDS011;14279;50.010;8.260;2022-08-03T12:03:43;7.17;;;1.67;;
26656;SDS011;14279;50.010;8.260;2022-08-03T12:06:09;3.87;;;1.60;;
26656;SDS011;14279;50.010;8.260;2022-08-03T12:08:36;1.87;;;1.50;;
26656;SDS011;14279;50.010;8.260;2022-08-03T12:11:03;3.10;;;1.40;;
26656;SDS011;14279;50.010;8.260;2022-08-03T12:16:09;2.20;;;2.00;;
26656;SDS011;14279;50.010;8.260;2022-08-03T12:18:42;4.17;;;1.80;;
26656;SDS011;14279;50.010;8.260;2022-08-03T12:21:08;1.40;;;1.30;;
26656;SDS011;14279;50.010;8.260;2022-08-03T12:23:56;3.83;;;1.70;;
26656;SDS011;14279;50.010;8.260;2022-08-03T12:26:46;4.07;;;1.57;;
26656;SDS011;14279;50.010;8.260;2022-08-03T12:29:19;4.03;;;1.70;;
26656;SDS011;14279;50.010;8.260;2022-08-03T12:31:46;6.30;;;1.50;;
26656;SDS011;14279;50.010;8.260;2022-08-03T12:34:11;3.70;;;1.40;;
26656;SDS011;14279;50.010;8.260;2022-08-03T12:36:37;5.53;;;1.73;;
26656;SDS011;14279;50.010;8.260;2022-08-03T12:39:13;4.40;;;1.90;;
26656;SDS011;14279;50.010;8.260;2022-08-03T12:41:39;3.93;;;1.70;;
26656;SDS011;14279;50.010;8.260;2022-08-03T12:44:06;6.30;;;1.60;;
26656;SDS011;14279;50.010;8.260;2022-08-03T12:46:33;3.13;;;1.60;;
26656;SDS011;14279;50.010;8.260;2022-08-03T12:49:08;4.43;;;1.70;;
26656;SDS011;14279;50.010;8.260;2022-08-03T12:54:07;3.57;;;1.73;;
26656;SDS011;14279;50.010;8.260;2022-08-03T12:56:59;5.23;;;1.70;;
26656;SDS011;14279;50.010;8.260;2022-08-03T12:59:33;7.43;;;1.50;;
26656;SDS011;14279;50.010;8.260;2022-08-03T13:02:00;7.97;;;1.60;;
26656;SDS011;14279;50.010;8.260;2022-08-03T13:04:27;3.30;;;1.30;;
26656;SDS011;14279;50.010;8.260;2022-08-03T13:07:12;3.47;;;1.60;;
26656;SDS011;14279;50.010;8.260;2022-08-03T13:09:42;1.90;;;1.50;;
26656;SDS011;14279;50.010;8.260;2022-08-03T13:14:39;4.57;;;1.77;;
26656;SDS011;14279;50.010;8.260;2022-08-03T13:17:05;4.70;;;1.53;;
26656;SDS011;14279;50.010;8.260;2022-08-03T13:19:34;2.73;;;1.93;;
26656;SDS011;14279;50.010;8.260;2022-08-03T13:22:00;4.10;;;1.27;;
26656;SDS011;14279;50.010;8.260;2022-08-03T13:24:36;2.57;;;1.50;;
26656;SDS011;14279;50.010;8.260;2022-08-03T13:27:01;2.63;;;1.80;;
26656;SDS011;14279;50.010;8.260;2022-08-03T13:29:29;2.30;;;1.60;;
26656;SDS011;14279;50.010;8.260;2022-08-03T13:31:54;4.03;;;1.47;;
26656;SDS011;14279;50.010;8.260;2022-08-03T13:34:19;3.07;;;2.03;;
26656;SDS011;14279;50.010;8.260;2022-08-03T13:36:45;5.90;;;2.30;;
26656;SDS011;14279;50.010;8.260;2022-08-03T13:39:10;4.87;;;1.77;;
26656;SDS011;14279;50.010;8.260;2022-08-03T13:41:35;1.40;;;1.30;;
26656;SDS011;14279;50.010;8.260;2022-08-03T13:44:00;1.30;;;1.20;;
26656;SDS011;14279;50.010;8.260;2022-08-03T13:46:26;6.30;;;1.70;;
26656;SDS011;14279;50.010;8.260;2022-08-03T13:48:51;5.53;;;1.30;;
26656;SDS011;14279;50.010;8.260;2022-08-03T13:51:17;7.03;;;1.50;;
26656;SDS011;14279;50.010;8.260;2022-08-03T13:53:42;3.07;;;1.20;;
26656;SDS011;14279;50.010;8.260;2022-08-03T13:56:07;3.80;;;1.33;;
26656;SDS011;14279;50.010;8.260;2022-08-03T13:58:32;7.53;;;1.50;;
26656;SDS011;14279;50.010;8.260;2022-08-03T14:00:57;1.40;;;1.30;;
26656;SDS011;14279;50.010;8.260;2022-08-03T14:03:23;3.10;;;1.47;;
26656;SDS011;14279;50.010;8.260;2022-08-03T14:05:48;2.00;;;1.10;;
26656;SDS011;14279;50.010;8.260;2022-08-03T14:08:13;3.40;;;1.37;;
26656;SDS011;14279;50.010;8.260;2022-08-03T14:10:40;4.30;;;1.50;;
26656;SDS011;14279;50.010;8.260;2022-08-03T14:13:13;2.27;;;1.60;;
26656;SDS011;14279;50.010;8.260;2022-08-03T14:16:05;3.83;;;1.33;;
26656;SDS011;14279;50.010;8.260;2022-08-03T14:22:59;4.37;;;2.20;;
26656;SDS011;14279;50.010;8.260;2022-08-03T14:25:28;2.80;;;1.70;;
26656;SDS011;14279;50.010;8.260;2022-08-03T14:27:56;4.63;;;1.30;;
26656;SDS011;14279;50.010;8.260;2022-08-03T14:30:22;2.60;;;1.47;;
26656;SDS011;14279;50.010;8.260;2022-08-03T14:32:47;2.70;;;1.47;;
26656;SDS011;14279;50.010;8.260;2022-08-03T14:35:39;2.17;;;1.50;;
26656;SDS011;14279;50.010;8.260;2022-08-03T14:38:05;2.17;;;1.37;;
26656;SDS011;14279;50.010;8.260;2022-08-03T14:40:36;4.40;;;1.83;;
26656;SDS011;14279;50.010;8.260;2022-08-03T14:43:05;2.83;;;1.70;;
26656;SDS011;14279;50.010;8.260;2022-08-03T14:48:21;2.57;;;1.50;;
26656;SDS011;14279;50.010;8.260;2022-08-03T14:50:47;3.90;;;1.17;;
26656;SDS011;14279;50.010;8.260;2022-08-03T14:56:08;5.10;;;1.43;;
26656;SDS011;14279;50.010;8.260;2022-08-03T14:58:36;4.47;;;2.73;;
26656;SDS011;14279;50.010;8.260;2022-08-03T15:01:01;5.07;;;2.70;;
26656;SDS011;14279;50.010;8.260;2022-08-03T15:03:27;3.13;;;1.20;;
26656;SDS011;14279;50.010;8.260;2022-08-03T15:06:00;3.23;;;1.50;;
26656;SDS011;14279;50.010;8.260;2022-08-03T15:09:22;2.80;;;1.30;;
26656;SDS011;14279;50.010;8.260;2022-08-03T15:11:48;2.43;;;1.40;;
26656;SDS011;14279;50.010;8.260;2022-08-03T15:14:13;6.20;;;1.30;;
26656;SDS011;14279;50.010;8.260;2022-08-03T15:16:38;1.53;;;1.43;;
26656;SDS011;14279;50.010;8.260;2022-08-03T15:19:04;3.80;;;1.23;;
26656;SDS011;14279;50.010;8.260;2022-08-03T15:21:30;4.90;;;1.40;;
26656;SDS011;14279;50.010;8.260;2022-08-03T15:23:55;2.50;;;1.20;;
26656;SDS011;14279;50.010;8.260;2022-08-03T15:26:20;7.80;;;1.40;;
26656;SDS011;14279;50.010;8.260;2022-08-03T15:28:46;4.93;;;1.60;;
26656;SDS011;14279;50.010;8.260;2022-08-03T15:31:11;7.47;;;1.60;;
26656;SDS011;14279;50.010;8.260;2022-08-03T15:33:36;1.80;;;1.20;;
26656;SDS011;14279;50.010;8.260;2022-08-03T15:36:02;3.83;;;1.50;;
26656;SDS011;14279;50.010;8.260;2022-08-03T15:38:28;3.13;;;1.30;;
26656;SDS011;14279;50.010;8.260;2022-08-03T15:40:53;10.53;;;1.57;;
26656;SDS011;14279;50.010;8.260;2022-08-03T15:43:19;1.40;;;1.27;;
26656;SDS011;14279;50.010;8.260;2022-08-03T15:45:45;3.50;;;1.23;;
26656;SDS011;14279;50.010;8.260;2022-08-03T15:48:11;2.17;;;1.40;;
26656;SDS011;14279;50.010;8.260;2022-08-03T15:50:36;4.63;;;1.30;;
26656;SDS011;14279;50.010;8.260;2022-08-03T15:53:01;15.73;;;1.47;;
26656;SDS011;14279;50.010;8.260;2022-08-03T15:55:27;4.77;;;1.50;;
26656;SDS011;14279;50.010;8.260;2022-08-03T15:57:52;3.57;;;1.30;;
26656;SDS011;14279;50.010;8.260;2022-08-03T16:00:18;2.10;;;1.33;;
26656;SDS011;14279;50.010;8.260;2022-08-03T16:02:43;1.93;;;1.43;;
26656;SDS011;14279;50.010;8.260;2022-08-03T16:05:08;1.20;;;1.10;;
26656;SDS011;14279;50.010;8.260;2022-08-03T16:07:33;2.40;;;1.50;;
26656;SDS011;14279;50.010;8.260;2022-08-03T16:10:10;1.50;;;1.20;;
26656;SDS011;14279;50.010;8.260;2022-08-03T16:12:37;1.50;;;1.40;;
26656;SDS011;14279;50.010;8.260;2022-08-03T16:18:34;2.70;;;1.60;;
26656;SDS011;14279;50.010;8.260;2022-08-03T16:24:15;3.25;;;1.90;;
26656;SDS011;14279;50.010;8.260;2022-08-03T16:26:40;1.50;;;1.30;;
26656;SDS011;14279;50.010;8.260;2022-08-03T16:29:05;1.30;;;1.20;;